Time;durP1;ratioP1;P1;durP2;ratioP2;P2;SDS_P1;SDS_P2;PMS_P1;PMS_P2;Temp;Humidity;BMP_temperature;BMP_pressure;BME280_temperature;BME280_humidity;BME280_pressure;Samples;Min_cycle;Max_cycle;Signal;HPM_P1;HPM_P2
2022/10/19 00:01:02;;;;;;;0.15;0.15;;;;;;;15.07;94.78;101978.03;5013839;28;20061;-65
2022/10/19 00:03:28;;;;;;;0.28;0.10;;;;;;;15.13;93.91;101974.72;5014144;28;20058;-65
2022/10/19 00:05:53;;;;;;;4.88;0.50;;;;;;;15.17;94.28;101982.94;5013117;28;20486;-64
2022/10/19 00:08:19;;;;;;;1.30;0.63;;;;;;;15.13;94.35;101974.72;5014186;28;20044;-64
2022/10/19 00:10:44;;;;;;;1.20;0.25;;;;;;;15.20;93.98;101977.56;5013347;28;20464;-65
2022/10/19 00:13:09;;;;;;;4.13;0.47;;;;;;;15.13;93.85;101974.72;5013757;28;20140;-65
2022/10/19 00:15:39;;;;;;;1.45;0.20;;;;;;;15.22;94.03;101971.78;5013686;28;20478;-65
2022/10/19 00:18:05;;;;;;;1.50;0.52;;;;;;;15.18;94.03;101979.06;5014007;28;20482;-65
2022/10/19 00:20:31;;;;;;;0.10;0.10;;;;;;;15.18;94.25;101984.47;5012819;28;20060;-65
2022/10/19 00:22:56;;;;;;;1.15;0.30;;;;;;;15.19;94.07;101983.38;5012632;28;20041;-65
2022/10/19 00:25:22;;;;;;;4.90;0.40;;;;;;;15.28;94.16;101981.22;5013003;28;20105;-65
2022/10/19 00:27:47;;;;;;;0.63;0.35;;;;;;;15.28;93.52;101973.09;5011747;28;20034;-65
2022/10/19 00:30:13;;;;;;;0.90;0.22;;;;;;;15.21;93.53;101983.78;5012324;28;20592;-65
2022/10/19 00:32:38;;;;;;;3.10;0.20;;;;;;;15.31;92.99;101983.25;5012606;28;20038;-65
2022/10/19 00:35:04;;;;;;;4.95;0.30;;;;;;;15.15;92.55;101987.91;5012952;28;20022;-65
2022/10/19 00:37:30;;;;;;;0.22;0.20;;;;;;;15.13;93.65;101985.56;5013125;28;20044;-65
2022/10/19 00:39:55;;;;;;;0.50;0.10;;;;;;;15.07;93.77;102000.53;5013518;28;20022;-65
2022/10/19 00:42:20;;;;;;;1.85;0.20;;;;;;;15.02;93.84;101997.31;5011791;28;20177;-64
2022/10/19 00:44:46;;;;;;;1.98;0.30;;;;;;;14.90;94.32;102005.53;5012299;28;20025;-65
2022/10/19 00:47:11;;;;;;;0.35;0.20;;;;;;;14.89;95.09;102010.16;5013433;28;20042;-65
2022/10/19 00:49:42;;;;;;;1.75;0.20;;;;;;;15.08;94.36;102001.31;5013331;28;20033;-65
2022/10/19 00:52:11;;;;;;;0.93;0.20;;;;;;;15.14;93.83;102002.59;5013476;28;20049;-64
2022/10/19 00:54:39;;;;;;;3.30;0.20;;;;;;;15.21;92.81;102000.09;5011703;28;20034;-64
2022/10/19 00:57:06;;;;;;;1.77;0.38;;;;;;;15.20;93.09;102009.34;5011234;28;20032;-65
2022/10/19 00:59:32;;;;;;;1.55;0.20;;;;;;;15.07;93.57;102008.69;5011915;28;20030;-64
2022/10/19 01:01:59;;;;;;;0.50;0.45;;;;;;;15.08;93.64;102009.44;5012438;28;20463;-64
2022/10/19 01:04:26;;;;;;;1.95;0.50;;;;;;;15.04;93.42;102017.50;5012690;28;20464;-64
2022/10/19 01:06:53;;;;;;;1.65;0.20;;;;;;;14.91;93.98;102018.72;5013207;28;20042;-64
2022/10/19 01:09:18;;;;;;;0.00;0.00;;;;;;;14.96;94.26;102014.97;5013063;28;20040;-65
2022/10/19 01:11:44;;;;;;;3.28;0.45;;;;;;;15.08;94.04;102018.38;5011458;28;20132;-65
2022/10/19 01:14:27;;;;;;;2.20;0.30;;;;;;;15.19;93.69;102011.25;5012518;28;20084;-64
2022/10/19 01:17:11;;;;;;;2.75;0.20;;;;;;;15.27;93.10;102007.59;5011828;28;20457;-64
2022/10/19 01:20:10;;;;;;;1.02;0.25;;;;;;;15.31;92.58;102007.69;5012910;28;20040;-65
2022/10/19 01:23:04;;;;;;;0.20;0.20;;;;;;;15.25;91.81;102003.66;4993080;28;20046;-64
2022/10/19 01:25:35;;;;;;;2.53;0.28;;;;;;;15.16;91.36;102000.34;4992876;28;20446;-66
2022/10/19 01:28:35;;;;;;;0.73;0.32;;;;;;;15.27;91.25;102002.16;4991914;28;20066;-67
2022/10/19 01:31:30;;;;;;;3.67;0.20;;;;;;;15.29;91.15;101996.41;5006320;28;20348;-66
2022/10/19 01:34:12;;;;;;;1.17;0.43;;;;;;;15.29;90.48;102001.81;5006551;28;20042;-66
2022/10/19 01:36:40;;;;;;;5.63;0.20;;;;;;;15.27;90.19;101993.25;5012928;28;20029;-66
2022/10/19 01:39:16;;;;;;;1.52;0.40;;;;;;;15.31;89.89;101994.13;5012289;28;20072;-66
2022/10/19 01:42:06;;;;;;;1.23;0.22;;;;;;;15.30;89.25;102008.81;4992699;28;20053;-66
2022/10/19 01:44:40;;;;;;;1.48;0.20;;;;;;;15.19;88.31;101996.94;4992099;28;20558;-66
2022/10/19 01:47:13;;;;;;;0.25;0.25;;;;;;;14.98;88.14;101991.78;4994631;28;20045;-66
2022/10/19 01:49:54;;;;;;;2.63;0.20;;;;;;;15.03;88.14;102004.28;5011977;28;20034;-66
2022/10/19 01:52:22;;;;;;;3.65;0.50;;;;;;;15.10;88.07;102005.25;5010634;28;20045;-66
2022/10/19 01:54:50;;;;;;;1.75;0.15;;;;;;;15.04;88.65;102005.88;4993459;28;20095;-66
2022/10/19 01:57:22;;;;;;;5.03;0.52;;;;;;;15.20;88.29;102009.34;5010155;28;20033;-66
2022/10/19 01:59:48;;;;;;;0.08;0.08;;;;;;;15.17;88.35;102004.63;5012212;28;20061;-66
2022/10/19 02:02:15;;;;;;;0.73;0.03;;;;;;;15.23;88.46;101989.66;5010653;28;20042;-66
2022/10/19 02:04:41;;;;;;;0.17;0.10;;;;;;;15.30;88.05;101997.94;5010906;28;20022;-66
2022/10/19 02:07:08;;;;;;;0.00;0.00;;;;;;;15.37;87.76;102001.63;5011952;28;20490;-65
2022/10/19 02:09:34;;;;;;;0.88;0.15;;;;;;;15.34;87.53;101999.63;5011614;28;20058;-65
2022/10/19 02:12:04;;;;;;;0.20;0.20;;;;;;;15.26;87.79;102000.59;5010826;28;20132;-65
2022/10/19 02:14:37;;;;;;;0.20;0.13;;;;;;;15.18;88.52;102000.78;5011409;28;20471;-65
2022/10/19 02:17:15;;;;;;;0.05;0.05;;;;;;;14.95;88.67;102003.34;5010454;28;20069;-65
2022/10/19 02:19:41;;;;;;;0.77;0.32;;;;;;;14.95;88.65;102003.34;4993646;28;20057;-65
2022/10/19 02:22:07;;;;;;;2.10;0.20;;;;;;;14.99;88.80;101998.00;5011062;28;20036;-65
2022/10/19 02:24:33;;;;;;;0.95;0.40;;;;;;;14.95;88.46;102005.25;5011021;28;20029;-65
2022/10/19 02:27:00;;;;;;;0.40;0.10;;;;;;;15.08;87.67;102002.09;5011709;28;20060;-65
2022/10/19 02:29:26;;;;;;;1.38;0.25;;;;;;;15.02;86.99;102000.78;5011017;28;20034;-65
2022/10/19 02:31:52;;;;;;;1.38;0.22;;;;;;;15.03;86.45;102004.28;5011422;28;20458;-65
2022/10/19 02:34:18;;;;;;;5.32;0.52;;;;;;;14.95;86.63;102002.53;5010992;28;20037;-65
2022/10/19 02:36:43;;;;;;;4.38;0.30;;;;;;;15.02;86.51;101997.31;5010834;28;20424;-65
2022/10/19 02:39:09;;;;;;;1.85;0.30;;;;;;;15.09;86.32;102000.19;5011197;28;20046;-65
2022/10/19 02:41:54;;;;;;;2.90;0.20;;;;;;;15.00;85.66;102003.06;5010288;28;20128;-65
2022/10/19 02:44:30;;;;;;;0.57;0.20;;;;;;;15.02;85.60;102006.22;5009671;28;20477;-65
2022/10/19 02:47:27;;;;;;;0.70;0.20;;;;;;;15.00;85.88;102007.72;5010911;28;20049;-65
2022/10/19 02:49:52;;;;;;;6.70;0.93;;;;;;;15.05;85.46;102010.16;5011385;28;20045;-66
2022/10/19 02:52:18;;;;;;;1.13;0.32;;;;;;;14.95;85.55;102003.34;5011164;28;20041;-66
2022/10/19 02:54:44;;;;;;;7.20;0.47;;;;;;;14.90;86.03;102016.38;5008577;28;20030;-66
2022/10/19 02:57:27;;;;;;;1.85;0.28;;;;;;;14.96;85.81;102014.97;5008940;28;20076;-65
2022/10/19 02:59:53;;;;;;;3.15;0.40;;;;;;;14.98;85.70;102001.84;5011158;28;20116;-65
2022/10/19 03:02:19;;;;;;;0.52;0.30;;;;;;;14.97;86.05;102000.25;5011053;28;20362;-65
2022/10/19 03:04:45;;;;;;;3.13;0.30;;;;;;;15.07;85.61;102005.97;5009927;28;20034;-65
2022/10/19 03:07:13;;;;;;;3.90;0.50;;;;;;;14.95;85.54;102007.97;5009932;28;20041;-65
2022/10/19 03:09:40;;;;;;;3.30;0.45;;;;;;;14.94;85.46;102006.41;5010916;28;20030;-66
2022/10/19 03:12:05;;;;;;;0.17;0.13;;;;;;;14.96;85.77;102013.03;5010395;28;20041;-65
2022/10/19 03:14:30;;;;;;;1.58;0.55;;;;;;;14.94;85.84;102007.16;5010599;28;20406;-66
2022/10/19 03:16:56;;;;;;;0.20;0.10;;;;;;;14.97;85.84;102006.50;5010703;28;20030;-65
2022/10/19 03:19:22;;;;;;;0.68;0.20;;;;;;;15.01;85.56;102009.28;5010903;28;20038;-65
2022/10/19 03:21:47;;;;;;;2.03;0.28;;;;;;;14.95;85.15;102007.97;5010091;28;20034;-65
2022/10/19 03:24:12;;;;;;;1.52;0.20;;;;;;;14.98;84.77;102020.84;5010452;28;20026;-66
2022/10/19 03:26:38;;;;;;;0.50;0.20;;;;;;;14.92;84.40;102020.31;5010862;28;20034;-65
2022/10/19 03:29:03;;;;;;;2.65;1.15;;;;;;;14.91;84.21;102018.72;5010440;28;20041;-65
2022/10/19 03:31:29;;;;;;;3.92;0.57;;;;;;;14.88;83.95;102024.88;5009477;28;20058;-65
2022/10/19 03:33:54;;;;;;;0.85;0.20;;;;;;;14.84;84.16;102025.91;5012059;28;20446;-65
2022/10/19 03:36:22;;;;;;;1.15;0.22;;;;;;;14.88;84.69;102027.59;5013954;28;20445;-66
2022/10/19 03:38:52;;;;;;;0.10;0.10;;;;;;;14.89;84.29;102031.06;5014800;28;20026;-65
2022/10/19 03:41:19;;;;;;;1.63;0.38;;;;;;;14.95;83.90;102035.09;5014076;28;20454;-65
2022/10/19 03:43:45;;;;;;;1.08;0.13;;;;;;;14.91;83.32;102040.44;5014412;28;20034;-66
2022/10/19 03:46:10;;;;;;;0.10;0.00;;;;;;;14.93;83.30;102042.78;5013262;28;20044;-66
2022/10/19 03:48:35;;;;;;;1.00;0.15;;;;;;;15.00;82.66;102048.41;5014589;28;20026;-65
2022/10/19 03:51:04;;;;;;;7.43;0.50;;;;;;;14.99;82.74;102055.75;5013082;28;20041;-65
2022/10/19 03:53:30;;;;;;;0.75;0.30;;;;;;;15.02;82.42;102051.56;5014321;28;20084;-66
2022/10/19 03:56:03;;;;;;;0.25;0.15;;;;;;;15.03;82.17;102047.72;5011358;28;20065;-66
2022/10/19 03:58:31;;;;;;;2.28;0.38;;;;;;;15.07;81.76;102059.44;5013031;28;20037;-65
2022/10/19 04:00:57;;;;;;;1.08;0.20;;;;;;;15.02;82.20;102062.44;5012971;28;20030;-65
2022/10/19 04:03:22;;;;;;;0.35;0.30;;;;;;;15.00;82.07;102061.97;5013404;28;20461;-65
2022/10/19 04:05:48;;;;;;;1.52;0.35;;;;;;;14.97;81.98;102065.38;5013726;28;20476;-66
2022/10/19 04:08:13;;;;;;;0.13;0.10;;;;;;;15.03;82.09;102069.41;5013923;28;20045;-65
2022/10/19 04:10:38;;;;;;;2.13;0.28;;;;;;;15.03;81.80;102066.69;5012917;28;20034;-65
2022/10/19 04:13:04;;;;;;;1.15;0.20;;;;;;;14.94;82.69;102063.38;5034626;23;20092;-71
2022/10/19 04:15:29;;;;;;;0.28;0.17;;;;;;;14.93;82.95;102062.59;5012301;28;20069;-70
2022/10/19 04:17:54;;;;;;;2.15;0.15;;;;;;;14.98;82.39;102065.03;5013978;28;20030;-70
2022/10/19 04:20:20;;;;;;;0.25;0.25;;;;;;;15.00;82.55;102075.56;5007636;28;20096;-70
2022/10/19 04:22:45;;;;;;;0.50;0.30;;;;;;;15.05;82.53;102083.41;5006871;28;20042;-70
2022/10/19 04:25:11;;;;;;;0.10;0.10;;;;;;;14.97;82.08;102070.81;5011203;28;20044;-70
2022/10/19 04:27:37;;;;;;;0.47;0.30;;;;;;;14.86;82.35;102075.19;5029244;28;20033;-69
2022/10/19 04:30:03;;;;;;;2.08;0.40;;;;;;;14.85;83.05;102076.28;5013474;28;20474;-70
2022/10/19 04:32:28;;;;;;;0.15;0.15;;;;;;;14.89;82.84;102071.75;5012413;28;20053;-70
2022/10/19 04:34:54;;;;;;;0.38;0.15;;;;;;;14.94;82.61;102082.38;5012681;28;20065;-70
2022/10/19 04:37:19;;;;;;;0.65;0.25;;;;;;;14.94;82.74;102088.56;4995757;28;20474;-70
2022/10/19 04:39:44;;;;;;;1.35;0.50;;;;;;;14.94;82.49;102077.72;5013346;28;20100;-70
2022/10/19 04:42:10;;;;;;;0.17;0.10;;;;;;;14.83;83.13;102087.50;5013451;28;20478;-70
2022/10/19 04:44:35;;;;;;;0.10;0.10;;;;;;;14.84;83.38;102082.88;5011356;28;20042;-70
2022/10/19 04:47:00;;;;;;;0.95;0.40;;;;;;;14.89;83.27;102085.31;5027628;28;20445;-70
2022/10/19 04:49:26;;;;;;;3.92;0.30;;;;;;;14.83;82.49;102087.50;5028423;28;20125;-70
2022/10/19 04:51:51;;;;;;;0.93;0.47;;;;;;;14.78;82.71;102081.56;5013281;28;20037;-70
2022/10/19 04:54:16;;;;;;;3.42;0.55;;;;;;;14.88;82.68;102083.75;5011870;28;20069;-70
2022/10/19 04:56:42;;;;;;;0.35;0.20;;;;;;;14.86;81.98;102092.25;5012331;28;20030;-71
2022/10/19 04:59:08;;;;;;;0.98;0.10;;;;;;;14.81;82.43;102089.78;4995702;28;20034;-71
2022/10/19 05:01:34;;;;;;;4.55;0.50;;;;;;;14.77;82.59;102091.59;5011674;28;20044;-71
2022/10/19 05:04:01;;;;;;;2.35;0.28;;;;;;;14.79;83.00;102085.84;5010830;28;20112;-71
2022/10/19 05:06:28;;;;;;;4.78;0.28;;;;;;;14.82;83.09;102094.06;5012834;28;20030;-71
2022/10/19 05:08:54;;;;;;;5.45;0.35;;;;;;;14.68;83.10;102087.47;5012990;28;20036;-71
2022/10/19 05:11:20;;;;;;;4.22;0.38;;;;;;;14.74;82.81;102092.31;5012626;28;20477;-72
2022/10/19 05:13:46;;;;;;;1.27;0.20;;;;;;;14.68;83.42;102084.75;5011585;28;20406;-72
2022/10/19 05:16:15;;;;;;;1.55;0.35;;;;;;;14.69;83.67;102086.34;5029800;28;20099;-72
2022/10/19 05:18:40;;;;;;;0.30;0.20;;;;;;;14.67;83.96;102108.41;5010325;28;20390;-71
2022/10/19 05:21:12;;;;;;;3.20;0.28;;;;;;;14.68;84.15;102096.41;5012780;28;20045;-72
2022/10/19 05:23:39;;;;;;;1.80;0.45;;;;;;;14.69;84.32;102097.97;5012607;28;20033;-71
2022/10/19 05:26:10;;;;;;;0.20;0.15;;;;;;;14.69;83.97;102089.06;5011596;28;20670;-72
2022/10/19 05:28:36;;;;;;;0.55;0.30;;;;;;;14.72;83.63;102082.94;5012541;28;20060;-71
2022/10/19 05:31:14;;;;;;;4.47;0.35;;;;;;;14.63;83.92;102082.31;5011310;28;20052;-71
2022/10/19 05:33:40;;;;;;;1.48;0.30;;;;;;;14.65;84.09;102080.03;5011501;28;20405;-71
2022/10/19 05:36:20;;;;;;;0.35;0.28;;;;;;;14.66;83.89;102087.81;5011540;28;20041;-71
2022/10/19 05:38:47;;;;;;;0.40;0.28;;;;;;;14.66;83.93;102093.25;5032087;28;20112;-71
2022/10/19 05:41:14;;;;;;;0.20;0.20;;;;;;;14.64;84.03;102094.72;5030849;28;20041;-71
2022/10/19 05:43:41;;;;;;;0.73;0.50;;;;;;;14.69;83.79;102083.63;5032213;28;20510;-71
2022/10/19 05:46:09;;;;;;;2.03;0.30;;;;;;;14.72;83.78;102083.72;5014802;28;20055;-72
2022/10/19 05:48:35;;;;;;;0.45;0.20;;;;;;;14.72;83.86;102080.22;5011988;28;20045;-71
2022/10/19 05:51:04;;;;;;;0.63;0.20;;;;;;;14.73;83.75;102081.81;5012051;28;20045;-71
2022/10/19 05:53:30;;;;;;;0.30;0.30;;;;;;;14.69;84.18;102083.63;5012071;28;20045;-72
2022/10/19 05:55:56;;;;;;;6.43;0.45;;;;;;;14.75;84.03;102074.88;5010657;28;20061;-71
2022/10/19 05:58:22;;;;;;;2.85;0.20;;;;;;;14.84;83.44;102083.66;5017695;28;20410;-71
2022/10/19 06:00:51;;;;;;;4.32;0.30;;;;;;;14.90;82.74;102087.72;5012305;28;20034;-72
2022/10/19 06:03:17;;;;;;;0.63;0.17;;;;;;;14.90;82.67;102086.91;5011802;28;20049;-71
2022/10/19 06:05:42;;;;;;;4.55;0.28;;;;;;;14.90;82.74;102089.63;5011148;28;20038;-71
2022/10/19 06:08:08;;;;;;;3.92;0.45;;;;;;;14.84;83.26;102091.00;5010822;28;20034;-71
2022/10/19 06:10:33;;;;;;;2.70;0.30;;;;;;;14.84;83.23;102099.94;5010417;28;20049;-71
2022/10/19 06:12:58;;;;;;;5.72;0.40;;;;;;;14.80;84.26;102090.13;5010677;28;20056;-72
2022/10/19 06:15:24;;;;;;;0.20;0.13;;;;;;;14.71;84.56;102094.94;5011678;28;20029;-71
2022/10/19 06:17:49;;;;;;;0.82;0.30;;;;;;;14.81;84.18;102099.81;5026445;28;20508;-72
2022/10/19 06:20:15;;;;;;;0.68;0.13;;;;;;;14.92;84.14;102087.34;5031431;28;20536;-71
2022/10/19 06:22:41;;;;;;;0.65;0.30;;;;;;;14.86;84.18;102086.03;5029732;28;20033;-71
2022/10/19 06:25:07;;;;;;;4.30;0.60;;;;;;;14.90;84.46;102092.34;5029725;28;20029;-71
2022/10/19 06:27:32;;;;;;;3.72;0.60;;;;;;;14.92;84.22;102098.19;5031475;28;20037;-72
2022/10/19 06:29:58;;;;;;;1.70;0.40;;;;;;;14.91;84.17;102102.84;5027546;28;20112;-71
2022/10/19 06:32:24;;;;;;;7.68;0.28;;;;;;;14.99;84.04;102095.66;5011834;28;20060;-71
2022/10/19 06:34:49;;;;;;;1.55;0.20;;;;;;;14.87;83.58;102090.31;5026360;28;20038;-71
2022/10/19 06:37:14;;;;;;;0.65;0.30;;;;;;;14.79;84.08;102092.03;5011526;28;20036;-71
2022/10/19 06:39:40;;;;;;;6.03;0.60;;;;;;;14.77;83.70;102088.88;5011559;28;20038;-71
2022/10/19 06:42:05;;;;;;;1.60;0.68;;;;;;;14.73;83.69;102098.84;5011149;28;20040;-71
2022/10/19 06:44:30;;;;;;;0.52;0.38;;;;;;;14.72;83.63;102102.72;5010743;28;20034;-71
2022/10/19 06:46:56;;;;;;;0.68;0.28;;;;;;;14.57;84.17;102100.75;5011433;28;20065;-71
2022/10/19 06:49:21;;;;;;;2.30;0.68;;;;;;;14.55;84.45;102089.47;5011766;28;20462;-71
2022/10/19 06:51:47;;;;;;;1.58;0.47;;;;;;;14.55;84.34;102099.53;5011309;28;20049;-71
2022/10/19 06:54:12;;;;;;;2.47;0.65;;;;;;;14.53;84.30;102091.72;4993230;28;20124;-71
2022/10/19 06:56:38;;;;;;;3.53;0.90;;;;;;;14.47;84.78;102093.13;5010288;28;20038;-72
2022/10/19 06:59:03;;;;;;;3.28;0.90;;;;;;;14.42;85.14;102096.06;5008742;28;20494;-71
2022/10/19 07:01:29;;;;;;;0.82;0.35;;;;;;;14.41;85.71;102091.78;5010978;28;20045;-72
2022/10/19 07:03:54;;;;;;;0.30;0.20;;;;;;;14.41;85.56;102098.00;4993831;28;20033;-71
2022/10/19 07:06:20;;;;;;;4.10;0.52;;;;;;;14.30;86.21;102102.31;5010756;28;20034;-71
2022/10/19 07:08:46;;;;;;;0.80;0.20;;;;;;;14.33;86.32;102104.34;5013022;28;20033;-71
2022/10/19 07:11:18;;;;;;;6.88;0.50;;;;;;;14.32;86.43;102102.75;5015347;28;20042;-71
2022/10/19 07:13:43;;;;;;;;;;;;;;;14.51;86.15;102107.56;5015773;28;20033;-71
2022/10/19 07:16:11;;;;;;;0.32;0.32;;;;;;;14.57;86.46;102099.97;5016852;28;19917;-71
2022/10/19 07:18:39;;;;;;;0.60;0.28;;;;;;;14.64;86.32;102116.41;5034056;28;20229;-71
2022/10/19 07:21:08;;;;;;;3.63;0.47;;;;;;;14.73;86.29;102117.84;5033712;28;20040;-71
2022/10/19 07:23:35;;;;;;;3.55;0.52;;;;;;;14.72;86.84;102126.31;5021254;28;20029;-71
2022/10/19 07:26:11;;;;;;;4.10;0.38;;;;;;;14.88;86.39;102121.72;5014411;28;20060;-71
2022/10/19 07:28:41;;;;;;;3.05;0.52;;;;;;;15.11;85.82;102125.44;5014863;28;20033;-71
2022/10/19 07:31:08;;;;;;;1.95;0.55;;;;;;;15.25;85.14;102123.88;5014735;28;20099;-71
2022/10/19 07:33:34;;;;;;;3.33;0.43;;;;;;;15.44;84.87;102139.50;5013298;28;20022;-71
2022/10/19 07:36:02;;;;;;;2.45;0.25;;;;;;;15.47;84.29;102140.72;5014298;28;20042;-71
2022/10/19 07:38:29;;;;;;;1.83;0.40;;;;;;;15.60;83.55;102134.06;5014745;28;20030;-71
2022/10/19 07:41:21;;;;;;;1.48;0.30;;;;;;;15.83;82.71;102140.44;5014293;28;20394;-71
2022/10/19 07:43:49;;;;;;;2.60;0.52;;;;;;;15.87;82.58;102138.59;5011415;28;20188;-71
2022/10/19 07:46:18;;;;;;;1.17;0.50;;;;;;;15.99;82.28;102144.69;5030046;28;20581;-71
2022/10/19 07:48:44;;;;;;;2.72;0.75;;;;;;;16.01;81.63;102166.84;5014708;28;20033;-71
2022/10/19 07:51:11;;;;;;;1.33;0.40;;;;;;;16.26;81.02;102160.03;5014722;28;20120;-71
2022/10/19 07:53:37;;;;;;;3.50;0.45;;;;;;;16.39;80.22;102162.63;5029603;28;20034;-71
2022/10/19 07:56:08;;;;;;;2.97;0.60;;;;;;;16.50;79.69;102169.09;5013886;28;20184;-71
2022/10/19 07:58:35;;;;;;;4.07;0.25;;;;;;;16.61;79.46;102164.66;5014721;28;20033;-71
2022/10/19 08:01:05;;;;;;;2.65;0.30;;;;;;;16.73;78.64;102164.53;5014232;28;20092;-71
2022/10/19 08:03:32;;;;;;;0.32;0.13;;;;;;;16.80;78.43;102162.72;5013210;28;20037;-71
2022/10/19 08:06:02;;;;;;;5.25;0.68;;;;;;;16.84;77.57;102163.56;5013636;28;20026;-71
2022/10/19 08:08:28;;;;;;;2.17;0.38;;;;;;;16.83;77.54;102161.22;5014101;28;20045;-71
2022/10/19 08:10:54;;;;;;;3.28;0.30;;;;;;;16.89;77.24;102170.69;5014132;28;20099;-70
2022/10/19 08:13:20;;;;;;;2.15;0.43;;;;;;;16.96;77.12;102151.75;5013858;28;20034;-69
2022/10/19 08:15:45;;;;;;;3.58;0.47;;;;;;;17.01;76.36;102167.81;5012438;28;20375;-69
2022/10/19 08:18:11;;;;;;;9.52;1.02;;;;;;;17.03;76.46;102165.50;5033230;28;20100;-70
2022/10/19 08:20:40;;;;;;;1.75;0.40;;;;;;;17.12;76.44;102166.84;5033072;28;20048;-69
2022/10/19 08:23:05;;;;;;;2.83;0.28;;;;;;;17.12;75.98;102166.06;5030773;28;20460;-71
2022/10/19 08:25:30;;;;;;;1.45;0.30;;;;;;;17.20;75.45;102164.25;5011849;28;20083;-69
2022/10/19 08:27:56;;;;;;;3.17;0.47;;;;;;;17.31;75.34;102173.38;5014097;28;20038;-70
2022/10/19 08:30:21;;;;;;;2.08;0.40;;;;;;;17.36;75.65;102171.16;5029209;28;20080;-70
2022/10/19 08:32:46;;;;;;;1.35;0.30;;;;;;;17.35;75.33;102172.28;5028045;28;20050;-69
2022/10/19 08:35:12;;;;;;;1.20;0.50;;;;;;;17.48;74.94;102175.63;5011908;28;20026;-70
2022/10/19 08:37:37;;;;;;;0.30;0.22;;;;;;;17.44;74.50;102174.78;5013749;28;20387;-70
2022/10/19 08:40:03;;;;;;;3.15;0.40;;;;;;;17.37;73.47;102180.91;5012699;28;20034;-70
2022/10/19 08:43:01;;;;;;;0.10;0.00;;;;;;;17.21;73.61;102180.22;5013379;28;20034;-70
2022/10/19 08:45:37;;;;;;;2.75;0.45;;;;;;;17.08;74.14;102195.16;5012936;28;20410;-71
2022/10/19 08:48:21;;;;;;;3.53;0.47;;;;;;;17.06;74.40;102192.00;5012580;28;20037;-71
2022/10/19 08:50:48;;;;;;;2.15;0.35;;;;;;;16.96;75.00;102198.03;5013379;28;20133;-71
2022/10/19 08:53:25;;;;;;;5.30;0.50;;;;;;;16.93;75.44;102196.03;5013540;28;20057;-71
2022/10/19 08:56:00;;;;;;;2.50;0.40;;;;;;;16.89;75.27;102197.88;5012053;28;20029;-71
2022/10/19 08:58:25;;;;;;;2.80;0.28;;;;;;;16.87;75.24;102200.97;5021162;28;20494;-71
2022/10/19 09:01:06;;;;;;;1.52;0.40;;;;;;;16.82;75.71;102197.75;5031954;28;20060;-71
2022/10/19 09:03:44;;;;;;;1.23;0.57;;;;;;;16.77;76.12;102198.03;5032944;28;20037;-71
2022/10/19 09:06:22;;;;;;;2.17;0.40;;;;;;;16.72;75.75;102210.00;5032623;28;20772;-71
2022/10/19 09:08:51;;;;;;;1.25;0.50;;;;;;;16.76;76.61;102202.69;5014963;28;20034;-71
2022/10/19 09:11:22;;;;;;;5.72;0.50;;;;;;;17.05;75.81;102209.50;5011548;28;20041;-71
2022/10/19 09:13:49;;;;;;;0.63;0.30;;;;;;;17.41;75.07;102211.72;5011908;28;20073;-71
2022/10/19 09:16:17;;;;;;;1.42;0.40;;;;;;;17.59;73.24;102204.66;5015291;28;20021;-71
2022/10/19 09:18:45;;;;;;;1.33;0.40;;;;;;;17.63;72.91;102208.25;5031473;28;20025;-71
2022/10/19 09:21:24;;;;;;;0.22;0.20;;;;;;;17.52;72.65;102209.97;5032513;28;20034;-71
2022/10/19 09:23:54;;;;;;;1.70;0.50;;;;;;;17.42;72.67;102205.09;5025514;28;20073;-71
2022/10/19 09:26:24;;;;;;;1.40;0.52;;;;;;;17.28;73.18;102201.34;5012348;28;20053;-71
2022/10/19 09:29:16;;;;;;;1.75;0.30;;;;;;;17.14;72.94;102199.16;5011477;28;20080;-71
2022/10/19 09:31:42;;;;;;;;;;;;;;;16.87;73.60;102200.19;4996007;28;20054;-71
2022/10/19 09:34:31;;;;;;;1.40;0.22;;;;;;;16.80;73.70;102200.06;5012000;28;20008;-71
2022/10/19 09:36:58;;;;;;;3.65;0.80;;;;;;;16.60;74.18;102193.81;5012618;28;20040;-71
2022/10/19 09:39:26;;;;;;;0.63;0.30;;;;;;;16.61;74.32;102198.09;5027460;28;20034;-71
2022/10/19 09:42:31;;;;;;;0.85;0.30;;;;;;;16.62;74.07;102202.41;5027197;28;20022;-71
2022/10/19 09:45:24;;;;;;;2.35;0.68;;;;;;;16.54;74.83;102205.31;4990341;28;20105;-70
2022/10/19 09:47:51;;;;;;;0.55;0.45;;;;;;;16.56;75.59;102208.47;5012550;28;20063;-70
2022/10/19 09:50:21;;;;;;;4.70;0.50;;;;;;;16.62;75.21;102207.06;5011773;28;20040;-70
2022/10/19 09:52:49;;;;;;;1.77;0.38;;;;;;;16.70;75.21;102206.06;5012407;28;20055;-70
2022/10/19 09:55:37;;;;;;;4.47;0.63;;;;;;;16.73;74.75;102206.13;5009235;28;20495;-69
2022/10/19 09:58:13;;;;;;;4.03;0.32;;;;;;;16.75;74.50;102208.47;5012451;28;20033;-70
2022/10/19 10:00:44;;;;;;;0.63;0.40;;;;;;;16.73;74.05;102206.13;5018145;28;20430;-69
2022/10/19 10:03:30;;;;;;;4.47;0.77;;;;;;;16.75;73.83;102205.75;5010843;28;20096;-69
2022/10/19 10:06:00;;;;;;;1.98;0.65;;;;;;;16.72;74.00;102211.94;5011298;28;20487;-69
2022/10/19 10:08:29;;;;;;;1.45;0.73;;;;;;;16.79;73.82;102212.06;5011012;28;20049;-71
2022/10/19 10:11:08;;;;;;;3.22;0.22;;;;;;;16.99;73.11;102208.19;5031030;28;20030;-70
2022/10/19 10:13:39;;;;;;;1.83;0.47;;;;;;;17.38;72.57;102211.66;5032969;22;20104;-65
2022/10/19 10:16:08;;;;;;;1.05;0.40;;;;;;;17.69;71.36;102206.75;4991445;28;20054;-65
2022/10/19 10:18:50;;;;;;;0.75;0.20;;;;;;;17.89;69.98;102212.91;4992309;28;20119;-65
2022/10/19 10:21:33;;;;;;;4.18;0.75;;;;;;;18.04;68.46;102215.50;4990922;28;20132;-64
2022/10/19 10:24:01;;;;;;;2.78;0.60;;;;;;;17.88;67.58;102211.34;4952977;28;20419;-65
2022/10/19 10:26:27;;;;;;;2.90;0.40;;;;;;;17.70;67.65;102221.97;4951901;29;20109;-65
2022/10/19 10:28:52;;;;;;;0.80;0.30;;;;;;;17.70;67.48;102216.53;4953552;28;20392;-65
2022/10/19 10:31:23;;;;;;;0.65;0.45;;;;;;;17.82;67.13;102219.06;4968130;28;20481;-65
2022/10/19 10:34:00;;;;;;;2.00;0.50;;;;;;;18.00;66.19;102225.56;4972757;28;20121;-65
2022/10/19 10:36:27;;;;;;;1.55;0.50;;;;;;;18.12;65.70;102226.53;4972610;28;20041;-65
2022/10/19 10:39:02;;;;;;;0.95;0.35;;;;;;;18.23;65.24;102238.38;4970829;28;20034;-65
2022/10/19 10:41:30;;;;;;;1.55;0.40;;;;;;;18.40;64.47;102229.66;4972407;28;20042;-65
2022/10/19 10:43:58;;;;;;;0.30;0.25;;;;;;;18.50;63.13;102231.78;4971620;28;20438;-65
2022/10/19 10:46:28;;;;;;;0.68;0.30;;;;;;;18.60;62.04;102234.63;4972248;28;20041;-65
2022/10/19 10:49:00;;;;;;;0.35;0.20;;;;;;;18.65;62.05;102228.06;4956058;28;20042;-65
2022/10/19 10:51:49;;;;;;;0.60;0.38;;;;;;;18.50;60.65;102238.03;4953132;28;20500;-65
2022/10/19 10:54:26;;;;;;;1.42;0.95;;;;;;;18.37;61.17;102228.44;4952185;28;20050;-65
2022/10/19 10:57:18;;;;;;;4.80;0.20;;;;;;;18.16;61.39;102221.88;4967293;28;20589;-64
2022/10/19 10:59:58;;;;;;;3.22;0.25;;;;;;;18.09;63.41;102219.06;4972374;28;20508;-65
2022/10/19 11:02:31;;;;;;;1.95;0.40;;;;;;;18.06;64.25;102217.09;4971295;28;20047;-66
2022/10/19 11:05:04;;;;;;;0.45;0.32;;;;;;;17.96;64.95;102222.00;4970481;28;20062;-65
2022/10/19 11:07:32;;;;;;;0.65;0.20;;;;;;;17.87;65.39;102218.75;4971395;28;20047;-65
2022/10/19 11:10:05;;;;;;;0.57;0.20;;;;;;;17.86;65.33;102221.84;4971092;28;20025;-65
2022/10/19 11:12:51;;;;;;;4.22;0.30;;;;;;;17.82;64.53;102216.34;4971035;28;20035;-65
2022/10/19 11:15:16;;;;;;;0.30;0.20;;;;;;;17.86;65.49;102213.66;4951035;28;20442;-65
2022/10/19 11:17:54;;;;;;;0.30;0.30;;;;;;;17.86;66.67;102208.22;4972349;28;20042;-65
2022/10/19 11:20:24;;;;;;;1.25;0.50;;;;;;;17.81;67.12;102211.22;4953072;29;20119;-65
2022/10/19 11:23:05;;;;;;;0.63;0.28;;;;;;;17.88;66.17;102205.91;4952851;28;20050;-65
2022/10/19 11:26:08;;;;;;;2.10;0.30;;;;;;;17.77;66.36;102208.44;4951669;28;20118;-65
2022/10/19 11:29:08;;;;;;;2.00;0.20;;;;;;;17.75;66.57;102208.03;4972040;28;20054;-65
2022/10/19 11:31:45;;;;;;;4.68;0.32;;;;;;;17.80;66.22;102202.28;4964424;28;20129;-65
2022/10/19 11:34:37;;;;;;;0.57;0.30;;;;;;;17.94;65.46;102194.31;4971205;28;20411;-64
2022/10/19 11:37:05;;;;;;;0.28;0.13;;;;;;;17.84;64.33;102196.88;4971000;28;20051;-65
2022/10/19 11:39:48;;;;;;;1.23;0.50;;;;;;;17.82;64.33;102185.56;4970721;28;20408;-65